createdAt,value
2022-10-07T00:00:07.034Z,99.71
2022-10-07T00:01:07.078Z,99.71
2022-10-07T00:02:07.010Z,99.71
2022-10-07T00:03:06.896Z,99.81
2022-10-07T00:04:07.037Z,99.71
2022-10-07T00:05:06.815Z,99.81
2022-10-07T00:06:06.771Z,99.81
2022-10-07T00:07:06.726Z,99.99
2022-10-07T00:08:06.683Z,99.99
2022-10-07T00:09:06.643Z,99.99
2022-10-07T00:10:06.613Z,99.90
2022-10-07T00:11:06.553Z,99.99
2022-10-07T00:12:06.511Z,99.67
2022-10-07T00:13:06.471Z,99.86
2022-10-07T00:14:06.423Z,99.48
2022-10-07T00:15:06.377Z,99.76
2022-10-07T00:16:06.373Z,99.76
2022-10-07T00:17:06.295Z,99.96
2022-10-07T00:18:06.259Z,99.57
2022-10-07T00:19:06.215Z,99.96
2022-10-07T00:20:06.170Z,99.99
2022-10-07T00:21:06.134Z,99.99
2022-10-07T00:22:06.100Z,99.86
2022-10-07T00:23:06.043Z,99.62
2022-10-07T00:24:05.998Z,99.91
2022-10-07T00:25:05.956Z,99.91
2022-10-07T00:26:05.911Z,99.72
2022-10-07T00:27:05.865Z,99.62
2022-10-07T00:28:05.919Z,99.52
2022-10-07T00:29:05.782Z,99.62
2022-10-07T00:30:05.742Z,99.91
2022-10-07T00:31:05.768Z,99.91
2022-10-07T00:32:05.834Z,99.99
2022-10-07T00:33:05.612Z,99.72
2022-10-07T00:34:05.581Z,99.24
2022-10-07T00:35:05.532Z,99.24
2022-10-07T00:36:05.488Z,99.05
2022-10-07T00:37:05.446Z,98.95
2022-10-07T00:38:05.423Z,98.71
2022-10-07T00:39:05.370Z,98.71
2022-10-07T00:40:05.318Z,99.10
2022-10-07T00:41:05.276Z,98.91
2022-10-07T00:42:05.237Z,98.81
2022-10-07T00:43:05.260Z,99.00
2022-10-07T00:44:05.166Z,99.00
2022-10-07T00:45:05.111Z,98.24
2022-10-07T00:46:05.120Z,98.33
2022-10-07T00:47:05.018Z,97.85
2022-10-07T00:48:04.980Z,98.14
2022-10-07T00:49:04.935Z,97.66
2022-10-07T00:50:04.912Z,97.75
2022-10-07T00:51:04.862Z,97.95
2022-10-07T00:52:04.808Z,97.47
2022-10-07T00:53:04.802Z,97.75
2022-10-07T00:54:04.723Z,97.75
2022-10-07T00:55:04.845Z,97.66
2022-10-07T00:56:04.648Z,97.04
2022-10-07T00:57:04.600Z,97.38
2022-10-07T00:58:04.556Z,97.33
2022-10-07T00:59:04.514Z,96.94
2022-10-07T01:00:04.471Z,97.04
2022-10-07T01:01:04.492Z,97.42
2022-10-07T01:02:04.433Z,96.94
2022-10-07T01:03:04.351Z,97.04
2022-10-07T01:04:04.298Z,97.04
2022-10-07T01:05:04.258Z,96.94
2022-10-07T01:06:04.215Z,96.94
2022-10-07T01:07:04.193Z,96.56
2022-10-07T01:08:04.131Z,96.66
2022-10-07T01:09:04.090Z,96.75
2022-10-07T01:10:04.043Z,96.27
2022-10-07T01:11:04.009Z,96.66
2022-10-07T01:12:03.969Z,96.18
2022-10-07T01:13:03.935Z,96.08
2022-10-07T01:14:03.878Z,96.27
2022-10-07T01:15:03.835Z,96.56
2022-10-07T01:16:03.789Z,96.66
2022-10-07T01:17:03.829Z,96.27
2022-10-07T01:18:03.705Z,96.75
2022-10-07T01:19:03.688Z,97.14
2022-10-07T01:20:03.620Z,96.94
2022-10-07T01:21:03.584Z,97.23
2022-10-07T01:22:03.539Z,97.52
2022-10-07T01:23:03.498Z,97.14
2022-10-07T01:24:03.455Z,97.23
2022-10-07T01:25:03.438Z,97.23
2022-10-07T01:26:03.371Z,97.71
2022-10-07T01:27:03.331Z,97.14
2022-10-07T01:28:03.311Z,97.42
2022-10-07T01:29:03.242Z,97.71
2022-10-07T01:30:03.204Z,97.23
2022-10-07T01:31:03.383Z,97.71
2022-10-07T01:32:03.116Z,97.52
2022-10-07T01:33:03.078Z,97.80
2022-10-07T01:34:03.032Z,97.42
2022-10-07T01:35:02.988Z,97.71
2022-10-07T01:36:02.946Z,98.00
2022-10-07T01:37:03.109Z,97.85
2022-10-07T01:38:02.861Z,97.95
2022-10-07T01:39:02.820Z,97.95
2022-10-07T01:40:02.784Z,97.47
2022-10-07T01:41:02.738Z,97.47
2022-10-07T01:42:02.696Z,97.66
2022-10-07T01:43:02.663Z,97.85
2022-10-07T01:44:02.610Z,97.76
2022-10-07T01:45:02.566Z,97.66
2022-10-07T01:46:02.577Z,97.95
2022-10-07T01:47:02.492Z,97.47
2022-10-07T01:48:02.439Z,97.85
2022-10-07T01:49:02.400Z,97.56
2022-10-07T01:50:02.356Z,97.95
2022-10-07T01:51:02.317Z,98.24
2022-10-07T01:52:02.325Z,98.43
2022-10-07T01:53:02.233Z,97.47
2022-10-07T01:54:02.188Z,97.66
2022-10-07T01:55:02.151Z,97.85
2022-10-07T01:56:02.102Z,97.66
2022-10-07T01:57:02.064Z,97.95
2022-10-07T01:58:02.064Z,97.47
2022-10-07T01:59:01.982Z,97.71
2022-10-07T02:00:01.933Z,97.81
2022-10-07T02:01:01.934Z,97.61
2022-10-07T02:02:01.846Z,97.42
2022-10-07T02:03:01.812Z,97.33
2022-10-07T02:04:01.843Z,97.23
2022-10-07T02:05:01.732Z,97.61
2022-10-07T02:06:01.686Z,97.42
2022-10-07T02:07:01.646Z,97.61
2022-10-07T02:08:01.600Z,97.04
2022-10-07T02:09:01.563Z,97.14
2022-10-07T02:10:01.562Z,96.66
2022-10-07T02:11:01.477Z,96.66
2022-10-07T02:12:01.434Z,96.56
2022-10-07T02:13:01.394Z,96.75
2022-10-07T02:14:01.351Z,96.61
2022-10-07T02:15:01.314Z,96.22
2022-10-07T02:16:01.368Z,96.18
2022-10-07T02:17:01.223Z,95.94
2022-10-07T02:18:01.181Z,95.55
2022-10-07T02:19:01.143Z,95.89
2022-10-07T02:20:01.096Z,96.22
2022-10-07T02:21:01.061Z,96.70
2022-10-07T02:22:01.033Z,96.42
2022-10-07T02:23:00.977Z,96.42
2022-10-07T02:24:00.934Z,96.51
2022-10-07T02:25:00.892Z,96.13
2022-10-07T02:26:00.847Z,95.75
2022-10-07T02:27:00.810Z,95.94
2022-10-07T02:28:00.823Z,96.22
2022-10-07T02:29:00.722Z,95.55
2022-10-07T02:30:00.686Z,95.65
2022-10-07T02:31:00.712Z,95.55
2022-10-07T02:32:00.597Z,95.65
2022-10-07T02:33:00.558Z,95.65
2022-10-07T02:34:00.534Z,95.55
2022-10-07T02:35:00.474Z,95.65
2022-10-07T02:36:00.430Z,95.65
2022-10-07T02:37:00.395Z,95.55
2022-10-07T02:38:00.356Z,95.84
2022-10-07T02:39:00.339Z,95.26
2022-10-07T02:40:00.283Z,95.55
2022-10-07T02:41:00.226Z,95.46
2022-10-07T02:42:00.186Z,95.94
2022-10-07T02:43:00.142Z,96.13
2022-10-07T02:44:00.104Z,95.65
2022-10-07T02:45:00.075Z,96.42
2022-10-07T02:46:00.116Z,96.70
2022-10-07T02:46:59.977Z,96.42
2022-10-07T02:47:59.935Z,96.61
2022-10-07T02:48:59.889Z,96.70
2022-10-07T02:49:59.852Z,96.61
2022-10-07T02:50:59.809Z,96.42
2022-10-07T02:51:59.803Z,96.61
2022-10-07T02:52:59.729Z,96.61
2022-10-07T02:53:59.683Z,96.13
2022-10-07T02:54:59.647Z,96.13
2022-10-07T02:55:59.604Z,96.51
2022-10-07T02:56:59.563Z,96.51
2022-10-07T02:57:59.855Z,96.22
2022-10-07T02:58:59.480Z,96.42
2022-10-07T02:59:59.436Z,96.61
2022-10-07T03:00:59.398Z,96.51
2022-10-07T03:01:59.436Z,96.42
2022-10-07T03:02:59.309Z,96.42
2022-10-07T03:03:59.344Z,96.61
2022-10-07T03:04:59.230Z,96.61
2022-10-07T03:05:59.186Z,96.70
2022-10-07T03:06:59.143Z,96.22
2022-10-07T03:07:59.105Z,96.13
2022-10-07T03:08:59.059Z,96.32
2022-10-07T03:09:59.036Z,95.84
2022-10-07T03:10:58.980Z,95.65
2022-10-07T03:11:58.969Z,95.75
2022-10-07T03:12:58.899Z,96.13
2022-10-07T03:13:58.853Z,95.65
2022-10-07T03:14:58.814Z,95.46
2022-10-07T03:15:58.843Z,95.46
2022-10-07T03:16:58.731Z,95.65
2022-10-07T03:17:58.693Z,95.65
2022-10-07T03:18:58.646Z,95.75
2022-10-07T03:19:58.607Z,95.84
2022-10-07T03:20:58.561Z,96.22
2022-10-07T03:21:58.540Z,95.84
2022-10-07T03:22:58.479Z,95.75
2022-10-07T03:23:58.442Z,95.84
2022-10-07T03:24:58.396Z,95.94
2022-10-07T03:25:58.360Z,95.75
2022-10-07T03:26:58.316Z,95.51
2022-10-07T03:27:58.338Z,95.84
2022-10-07T03:28:58.228Z,96.08
2022-10-07T03:29:58.191Z,96.80
2022-10-07T03:30:58.178Z,96.61
2022-10-07T03:31:58.105Z,96.89
2022-10-07T03:32:58.088Z,96.61
2022-10-07T03:33:58.028Z,96.13
2022-10-07T03:34:57.981Z,96.42
2022-10-07T03:35:57.942Z,96.03
2022-10-07T03:36:57.898Z,95.94
2022-10-07T03:37:57.858Z,95.84
2022-10-07T03:38:57.832Z,95.84
2022-10-07T03:39:57.772Z,95.75
2022-10-07T03:40:57.730Z,95.46
2022-10-07T03:41:57.695Z,95.65
2022-10-07T03:42:57.650Z,95.26
2022-10-07T03:43:57.627Z,95.26
2022-10-07T03:44:57.569Z,95.55
2022-10-07T03:45:57.528Z,95.55
2022-10-07T03:46:57.525Z,95.84
2022-10-07T03:47:57.438Z,96.13
2022-10-07T03:48:57.400Z,96.03
2022-10-07T03:49:57.384Z,95.94
2022-10-07T03:50:57.316Z,95.94
2022-10-07T03:51:57.276Z,96.13
2022-10-07T03:52:57.233Z,96.13
2022-10-07T03:53:57.191Z,95.75
2022-10-07T03:54:57.153Z,96.13
2022-10-07T03:55:57.123Z,95.94
2022-10-07T03:56:57.067Z,95.65
2022-10-07T03:57:59.537Z,95.46
2022-10-07T03:58:56.987Z,95.55
2022-10-07T03:59:56.943Z,95.94
2022-10-07T04:00:56.899Z,95.55
2022-10-07T04:01:56.931Z,95.94
2022-10-07T04:02:56.878Z,95.89
2022-10-07T04:03:56.779Z,95.60
2022-10-07T04:04:56.737Z,95.41
2022-10-07T04:05:56.695Z,95.50
2022-10-07T04:06:56.658Z,95.12
2022-10-07T04:07:56.627Z,95.12
2022-10-07T04:08:56.571Z,94.74
2022-10-07T04:09:56.528Z,94.93
2022-10-07T04:10:56.486Z,95.41
2022-10-07T04:11:56.446Z,94.64
2022-10-07T04:12:56.404Z,95.03
2022-10-07T04:13:56.376Z,94.83
2022-10-07T04:14:56.342Z,95.03
2022-10-07T04:15:56.353Z,95.03
2022-10-07T04:16:56.239Z,94.93
2022-10-07T04:17:56.201Z,94.83
2022-10-07T04:18:56.154Z,95.21
2022-10-07T04:19:56.117Z,95.21
2022-10-07T04:20:56.084Z,95.50
2022-10-07T04:21:56.046Z,95.70
2022-10-07T04:22:55.989Z,95.89
2022-10-07T04:23:55.948Z,95.94
2022-10-07T04:24:55.914Z,96.37
2022-10-07T04:25:55.861Z,96.56
2022-10-07T04:26:55.821Z,96.75
2022-10-07T04:27:55.824Z,96.85
2022-10-07T04:28:55.738Z,96.94
2022-10-07T04:29:55.697Z,96.61
2022-10-07T04:30:55.653Z,96.18
2022-10-07T04:31:55.724Z,96.70
2022-10-07T04:32:55.570Z,96.47
2022-10-07T04:33:55.557Z,96.42
2022-10-07T04:34:55.488Z,96.27
2022-10-07T04:35:55.457Z,96.85
2022-10-07T04:36:55.407Z,96.47
2022-10-07T04:37:55.371Z,96.27
2022-10-07T04:38:55.322Z,96.47
2022-10-07T04:40:00.592Z,96.47
2022-10-07T04:40:55.239Z,96.18
2022-10-07T04:41:55.202Z,96.47
2022-10-07T04:42:55.161Z,96.56
2022-10-07T04:43:57.887Z,96.37
2022-10-07T04:44:55.072Z,96.47
2022-10-07T04:45:55.210Z,96.66
2022-10-07T04:46:55.059Z,96.66
2022-10-07T04:47:54.947Z,96.37
2022-10-07T04:48:54.904Z,95.79
2022-10-07T04:49:54.865Z,96.37
2022-10-07T04:50:54.827Z,96.27
2022-10-07T04:51:54.807Z,96.37
2022-10-07T04:52:54.740Z,96.56
2022-10-07T04:53:57.060Z,96.66
2022-10-07T04:54:54.660Z,96.56
2022-10-07T04:55:54.627Z,96.75
2022-10-07T04:56:54.571Z,96.51
2022-10-07T04:57:54.548Z,96.66
2022-10-07T04:58:54.491Z,96.27
2022-10-07T04:59:54.453Z,96.51
2022-10-07T05:00:54.422Z,96.56
2022-10-07T05:01:54.407Z,96.66
2022-10-07T05:02:54.324Z,96.47
2022-10-07T05:03:54.309Z,96.56
2022-10-07T05:04:54.250Z,96.94
2022-10-07T05:05:54.199Z,96.75
2022-10-07T05:06:54.157Z,96.37
2022-10-07T05:07:54.118Z,96.27
2022-10-07T05:08:54.083Z,96.08
2022-10-07T05:09:54.063Z,95.98
2022-10-07T05:10:53.996Z,95.98
2022-10-07T05:11:53.954Z,95.98
2022-10-07T05:12:56.050Z,95.89
2022-10-07T05:13:53.869Z,96.08
2022-10-07T05:14:53.829Z,95.79
2022-10-07T05:15:53.850Z,95.70
2022-10-07T05:16:53.745Z,95.50
2022-10-07T05:17:53.708Z,95.50
2022-10-07T05:18:53.659Z,95.89
2022-10-07T05:19:53.620Z,95.89
2022-10-07T05:20:53.580Z,95.89
2022-10-07T05:21:53.547Z,95.60
2022-10-07T05:22:53.711Z,95.89
2022-10-07T05:23:53.469Z,95.98
2022-10-07T05:24:53.414Z,95.98
2022-10-07T05:25:53.375Z,95.98
2022-10-07T05:26:53.329Z,95.70
2022-10-07T05:27:53.293Z,96.08
2022-10-07T05:28:53.246Z,96.08
2022-10-07T05:29:53.219Z,95.50
2022-10-07T05:30:53.167Z,95.70
2022-10-07T05:31:53.170Z,96.37
2022-10-07T05:32:53.077Z,96.85
2022-10-07T05:33:53.040Z,96.75
2022-10-07T05:34:52.999Z,96.47
2022-10-07T05:35:52.968Z,96.75
2022-10-07T05:36:52.911Z,96.47
2022-10-07T05:37:53.029Z,96.47
2022-10-07T05:38:52.834Z,96.42
2022-10-07T05:39:52.900Z,96.66
2022-10-07T05:40:52.749Z,96.27
2022-10-07T05:41:52.722Z,96.94
2022-10-07T05:42:52.666Z,96.94
2022-10-07T05:43:52.628Z,96.47
2022-10-07T05:44:52.586Z,96.66
2022-10-07T05:45:52.643Z,96.37
2022-10-07T05:46:52.500Z,96.56
2022-10-07T05:47:52.478Z,96.94
2022-10-07T05:48:52.414Z,97.04
2022-10-07T05:49:52.376Z,96.85
2022-10-07T05:50:52.329Z,96.85
2022-10-07T05:51:52.292Z,96.47
2022-10-07T05:52:52.248Z,96.47
2022-10-07T05:53:52.226Z,96.66
2022-10-07T05:54:52.164Z,96.47
2022-10-07T05:55:52.127Z,96.37
2022-10-07T05:56:52.083Z,96.47
2022-10-07T05:57:52.038Z,96.66
2022-10-07T05:58:52.000Z,96.47
2022-10-07T05:59:51.984Z,96.75
2022-10-07T06:03:47.160Z,96.27
2022-10-07T06:04:46.790Z,96.37
2022-10-07T06:05:46.779Z,96.32
2022-10-07T06:06:46.774Z,96.22
2022-10-07T06:07:47.536Z,97.09
2022-10-07T06:08:46.613Z,97.09
2022-10-07T06:09:46.696Z,97.28
2022-10-07T06:10:46.525Z,96.99
2022-10-07T06:11:46.759Z,97.28
2022-10-07T06:12:46.720Z,97.86
2022-10-07T06:13:46.403Z,97.56
2022-10-07T06:14:46.560Z,97.66
2022-10-07T06:15:46.312Z,97.38
2022-10-07T06:16:46.362Z,98.14
2022-10-07T06:17:46.482Z,97.86
2022-10-07T06:18:46.347Z,97.86
2022-10-07T06:19:46.141Z,97.66
2022-10-07T06:20:46.281Z,97.42
2022-10-07T06:21:46.057Z,98.10
2022-10-07T06:22:46.350Z,97.52
2022-10-07T06:23:46.078Z,97.24
2022-10-07T06:24:45.946Z,97.61
2022-10-07T06:25:46.121Z,97.33
2022-10-07T06:26:45.882Z,97.71
2022-10-07T06:27:49.728Z,97.24
2022-10-07T06:28:45.968Z,97.33
2022-10-07T06:29:45.919Z,97.14
2022-10-07T06:30:45.723Z,97.33
2022-10-07T06:31:45.955Z,96.75
2022-10-07T06:32:45.602Z,96.94
2022-10-07T06:33:45.560Z,96.47
2022-10-07T06:34:46.171Z,96.56
2022-10-07T06:35:45.525Z,96.47
2022-10-07T06:36:45.562Z,96.47
2022-10-07T06:37:45.792Z,96.47
2022-10-07T06:38:45.352Z,96.47
2022-10-07T06:39:45.309Z,96.47
2022-10-07T06:40:45.598Z,96.47
2022-10-07T06:41:45.225Z,96.18
2022-10-07T06:42:45.402Z,96.47
2022-10-07T06:43:45.150Z,96.47
2022-10-07T06:44:45.118Z,96.47
2022-10-07T06:45:45.278Z,96.27
2022-10-07T06:46:45.047Z,96.47
2022-10-07T06:47:45.461Z,96.51
2022-10-07T06:48:44.937Z,96.89
2022-10-07T06:49:44.958Z,96.13
2022-10-07T06:50:44.851Z,96.03
2022-10-07T06:51:44.954Z,95.94
2022-10-07T06:52:45.023Z,95.55
2022-10-07T06:53:44.975Z,95.17
2022-10-07T06:54:44.691Z,95.17
2022-10-07T06:55:44.647Z,94.88
2022-10-07T06:56:44.628Z,94.88
2022-10-07T06:57:45.953Z,94.49
2022-10-07T06:58:44.517Z,94.78
2022-10-07T06:59:44.612Z,94.78
2022-10-07T07:00:44.722Z,94.78
2022-10-07T07:01:44.639Z,94.98
2022-10-07T07:02:44.638Z,94.98
2022-10-07T07:03:44.314Z,94.40
2022-10-07T07:04:44.568Z,94.69
2022-10-07T07:05:45.805Z,95.07
2022-10-07T07:06:44.187Z,94.54
2022-10-07T07:07:44.505Z,94.73
2022-10-07T07:08:44.415Z,94.06
2022-10-07T07:09:44.368Z,93.58
2022-10-07T07:10:44.025Z,93.87
2022-10-07T07:11:43.987Z,93.87
2022-10-07T07:12:44.307Z,93.77
2022-10-07T07:13:46.020Z,93.68
2022-10-07T07:14:43.859Z,93.10
2022-10-07T07:15:44.107Z,92.72
2022-10-07T07:16:43.832Z,92.91
2022-10-07T07:17:43.961Z,92.52
2022-10-07T07:18:43.713Z,92.14
2022-10-07T07:19:44.136Z,91.95
2022-10-07T07:20:43.615Z,91.66
2022-10-07T07:21:45.533Z,91.85
2022-10-07T07:22:43.531Z,91.75
2022-10-07T07:23:43.750Z,91.75
2022-10-07T07:24:43.453Z,91.95
2022-10-07T07:25:43.565Z,91.66
2022-10-07T07:26:43.368Z,91.75
2022-10-07T07:27:43.909Z,91.61
2022-10-07T07:28:43.339Z,91.61
2022-10-07T07:29:43.383Z,91.52
2022-10-07T07:30:43.272Z,91.56
2022-10-07T07:31:43.607Z,91.75
2022-10-07T07:32:43.121Z,91.61
2022-10-07T07:33:43.085Z,91.80
2022-10-07T07:34:43.159Z,91.80
2022-10-07T07:35:43.246Z,91.42
2022-10-07T07:36:42.958Z,91.61
2022-10-07T07:37:43.376Z,91.42
2022-10-07T07:38:42.879Z,91.22
2022-10-07T07:39:42.841Z,91.03
2022-10-07T07:40:43.084Z,90.84
2022-10-07T07:41:42.763Z,90.36
2022-10-07T07:42:42.865Z,90.59
2022-10-07T07:43:42.953Z,90.21
2022-10-07T07:44:42.637Z,89.73
2022-10-07T07:45:42.615Z,89.73
2022-10-07T07:46:42.704Z,89.44
2022-10-07T07:47:42.685Z,89.54
2022-10-07T07:48:42.717Z,89.44
2022-10-07T07:49:42.471Z,88.48
2022-10-07T07:50:42.389Z,88.87
2022-10-07T07:53:50.331Z,88.48
2022-10-07T07:56:07.048Z,88.19
2022-10-07T07:56:58.970Z,87.85
2022-10-07T07:57:58.946Z,87.18
2022-10-07T07:58:58.883Z,87.33
2022-10-07T07:59:58.869Z,87.18
2022-10-07T08:00:58.819Z,87.46
2022-10-07T08:01:58.760Z,86.69
2022-10-07T08:02:58.715Z,86.69
2022-10-07T08:03:58.675Z,86.60
2022-10-07T08:04:58.658Z,86.79
2022-10-07T08:05:58.593Z,85.74
2022-10-07T08:06:58.552Z,85.93
2022-10-07T08:07:58.512Z,85.97
2022-10-07T08:08:58.470Z,86.26
2022-10-07T08:09:58.436Z,85.78
2022-10-07T08:10:58.415Z,85.20
2022-10-07T08:11:58.353Z,85.10
2022-10-07T08:12:58.317Z,85.10
2022-10-07T08:13:58.271Z,84.72
2022-10-07T08:14:58.228Z,84.33
2022-10-07T08:15:58.272Z,83.41
2022-10-07T08:16:58.175Z,83.03
2022-10-07T08:17:58.109Z,83.03
2022-10-07T08:18:58.071Z,83.51
2022-10-07T08:19:58.038Z,83.61
2022-10-07T08:20:57.993Z,83.18
2022-10-07T08:21:57.950Z,83.41
2022-10-07T08:22:59.088Z,83.22
2022-10-07T08:23:57.871Z,83.22
2022-10-07T08:24:57.831Z,82.93
2022-10-07T08:25:57.793Z,83.41
2022-10-07T08:26:57.758Z,82.45
2022-10-07T08:27:57.809Z,81.96
2022-10-07T08:28:57.719Z,82.45
2022-10-07T08:29:57.635Z,83.12
2022-10-07T08:30:57.632Z,82.74
2022-10-07T08:31:57.552Z,82.68
2022-10-07T08:33:01.161Z,81.72
2022-10-07T08:33:57.476Z,80.85
2022-10-07T08:34:57.452Z,81.14
2022-10-07T08:35:57.401Z,80.71
2022-10-07T08:36:57.374Z,80.62
2022-10-07T08:37:57.318Z,81.04
2022-10-07T08:38:57.274Z,80.66
2022-10-07T08:39:57.239Z,80.27
2022-10-07T08:40:57.211Z,80.27
2022-10-07T08:41:57.158Z,80.18
2022-10-07T08:42:57.118Z,80.46
2022-10-07T08:44:00.765Z,79.89
2022-10-07T08:44:57.038Z,79.31
2022-10-07T08:45:57.061Z,79.31
2022-10-07T08:46:56.971Z,79.50
2022-10-07T08:47:56.924Z,79.50
2022-10-07T08:48:56.883Z,79.69
2022-10-07T08:49:56.844Z,79.31
2022-10-07T08:50:56.801Z,79.41
2022-10-07T08:51:56.763Z,79.69
2022-10-07T08:52:56.731Z,79.41
2022-10-07T08:53:56.682Z,79.79
2022-10-07T08:54:56.642Z,79.69
2022-10-07T08:55:56.605Z,79.50
2022-10-07T08:56:56.563Z,79.21
2022-10-07T08:57:56.527Z,78.92
2022-10-07T08:58:56.586Z,79.02
2022-10-07T08:59:56.561Z,78.34
2022-10-07T09:00:56.404Z,77.48
2022-10-07T09:01:56.367Z,77.33
2022-10-07T09:02:56.422Z,76.68
2022-10-07T09:03:56.305Z,74.66
2022-10-07T09:04:56.291Z,73.79
2022-10-07T09:05:56.211Z,73.54
2022-10-07T09:06:56.171Z,72.32
2022-10-07T09:07:56.129Z,71.26
2022-10-07T09:08:56.094Z,70.68
2022-10-07T09:09:56.057Z,69.94
2022-10-07T09:10:56.038Z,68.24
2022-10-07T09:11:55.977Z,66.72
2022-10-07T09:12:55.940Z,65.01
2022-10-07T09:13:55.906Z,63.79
2022-10-07T09:14:55.872Z,61.91
2022-10-07T09:15:55.873Z,59.91
2022-10-07T09:16:55.971Z,59.64
2022-10-07T09:17:55.753Z,58.19
2022-10-07T09:18:55.718Z,56.98
2022-10-07T09:19:55.682Z,55.04
2022-10-07T09:20:55.644Z,55.04
2022-10-07T09:21:55.609Z,54.72
2022-10-07T09:22:55.599Z,54.92
2022-10-07T09:23:55.538Z,55.60
2022-10-07T09:24:56.178Z,54.72
2022-10-07T09:25:55.466Z,54.99
2022-10-07T09:26:55.432Z,55.77
2022-10-07T09:27:55.393Z,57.09
2022-10-07T09:28:55.393Z,58.14
2022-10-07T09:29:55.322Z,58.69
2022-10-07T09:30:55.362Z,59.53
2022-10-07T09:31:55.247Z,59.79
2022-10-07T09:32:55.217Z,60.85
2022-10-07T09:33:55.178Z,62.18
2022-10-07T09:34:55.151Z,63.14
2022-10-07T09:35:57.553Z,63.24
2022-10-07T09:36:55.063Z,64.47
2022-10-07T09:37:55.044Z,65.34
2022-10-07T09:38:54.989Z,65.40
2022-10-07T09:39:54.963Z,65.20
2022-10-07T09:40:54.916Z,65.30
2022-10-07T09:41:54.877Z,66.14
2022-10-07T09:42:54.839Z,67.11
2022-10-07T09:43:54.813Z,66.72
2022-10-07T09:44:54.767Z,67.46
2022-10-07T09:45:54.732Z,67.55
2022-10-07T09:46:54.742Z,68.43
2022-10-07T09:47:54.648Z,68.33
2022-10-07T09:48:54.613Z,68.23
2022-10-07T09:49:54.588Z,68.62
2022-10-07T09:50:54.548Z,68.91
2022-10-07T09:51:54.490Z,69.78
2022-10-07T09:52:54.461Z,70.39
2022-10-07T09:53:54.413Z,68.88
2022-10-07T09:54:54.385Z,66.24
2022-10-07T09:55:54.359Z,63.79
2022-10-07T09:56:54.300Z,61.11
2022-10-07T09:57:54.267Z,59.36
2022-10-07T09:58:54.231Z,59.84
2022-10-07T09:59:54.192Z,59.56
2022-10-07T10:00:54.169Z,59.23
2022-10-07T10:01:54.198Z,59.82
2022-10-07T10:02:54.147Z,60.21
2022-10-07T10:03:54.040Z,59.72
2022-10-07T10:04:54.005Z,60.11
2022-10-07T10:05:53.973Z,59.82
2022-10-07T10:06:53.931Z,59.82
2022-10-07T10:07:53.919Z,60.04
2022-10-07T10:08:53.858Z,59.36
2022-10-07T10:09:53.820Z,59.00
2022-10-07T10:10:53.783Z,58.59
2022-10-07T10:11:53.786Z,58.42
2022-10-07T10:12:53.716Z,58.42
2022-10-07T10:13:53.698Z,58.59
2022-10-07T10:14:53.641Z,58.39
2022-10-07T10:15:53.697Z,58.11
2022-10-07T10:16:53.563Z,58.30
2022-10-07T10:17:53.525Z,58.39
2022-10-07T10:18:53.495Z,58.42
2022-10-07T10:19:53.472Z,58.42
2022-10-07T10:20:53.418Z,58.52
2022-10-07T10:21:53.379Z,58.52
2022-10-07T10:22:53.343Z,58.42
2022-10-07T10:23:53.309Z,58.06
2022-10-07T10:24:53.272Z,57.39
2022-10-07T10:25:53.256Z,56.76
2022-10-07T10:26:53.205Z,55.53
2022-10-07T10:27:53.162Z,53.83
2022-10-07T10:28:53.123Z,51.75
2022-10-07T10:29:53.090Z,50.02
2022-10-07T10:30:53.115Z,49.56
2022-10-07T10:31:53.044Z,48.97
2022-10-07T10:32:52.983Z,48.61
2022-10-07T10:33:52.949Z,47.95
2022-10-07T10:34:52.921Z,47.29
2022-10-07T10:35:52.896Z,45.46
2022-10-07T10:36:52.850Z,44.97
2022-10-07T10:37:52.830Z,44.90
2022-10-07T10:38:52.785Z,45.31
2022-10-07T10:39:52.744Z,43.28
2022-10-07T10:40:52.725Z,42.22
2022-10-07T10:41:52.684Z,42.13
2022-10-07T10:42:52.654Z,41.93
2022-10-07T10:43:52.648Z,41.93
2022-10-07T10:44:52.594Z,41.07
2022-10-07T10:45:52.553Z,41.17
2022-10-07T10:46:52.568Z,40.29
2022-10-07T10:47:52.498Z,39.92
2022-10-07T10:48:52.464Z,40.11
2022-10-07T10:49:52.445Z,40.41
2022-10-07T10:50:52.400Z,40.11
2022-10-07T10:51:52.374Z,40.21
2022-10-07T10:52:52.344Z,40.11
2022-10-07T10:53:52.315Z,40.11
2022-10-07T10:54:52.291Z,39.23
2022-10-07T10:55:52.248Z,39.07
2022-10-07T10:56:52.217Z,38.78
2022-10-07T10:57:53.988Z,38.39
2022-10-07T10:58:52.159Z,38.49
2022-10-07T10:59:52.130Z,39.19
2022-10-07T11:00:53.490Z,38.72
2022-10-07T11:01:52.120Z,37.94
2022-10-07T11:02:52.061Z,38.13
2022-10-07T11:03:52.010Z,37.27
2022-10-07T11:04:51.979Z,37.37
2022-10-07T11:05:51.947Z,37.05
2022-10-07T11:06:51.931Z,37.05
2022-10-07T11:07:51.888Z,36.37
2022-10-07T11:08:51.860Z,36.66
2022-10-07T11:09:51.829Z,36.74
2022-10-07T11:10:51.807Z,38.00
2022-10-07T11:11:51.788Z,37.81
2022-10-07T11:12:51.737Z,38.00
2022-10-07T11:13:51.710Z,37.90
2022-10-07T11:14:54.627Z,38.21
2022-10-07T11:15:51.749Z,37.74
2022-10-07T11:16:51.620Z,37.23
2022-10-07T11:17:51.619Z,36.45
2022-10-07T11:18:51.566Z,36.72
2022-10-07T11:19:51.538Z,36.82
2022-10-07T11:20:51.500Z,36.90
2022-10-07T11:21:51.473Z,37.71
2022-10-07T11:22:51.444Z,37.90
2022-10-07T11:23:51.426Z,37.96
2022-10-07T11:24:51.393Z,37.87
2022-10-07T11:25:51.350Z,38.67
2022-10-07T11:26:51.323Z,37.39
2022-10-07T11:27:51.294Z,37.69
2022-10-07T11:28:51.273Z,37.49
2022-10-07T11:29:51.255Z,37.81
2022-10-07T11:30:51.244Z,37.49
2022-10-07T11:31:51.178Z,37.82
2022-10-07T11:32:51.146Z,37.13
2022-10-07T11:33:51.115Z,36.78
2022-10-07T11:34:54.396Z,35.91
2022-10-07T11:35:51.139Z,35.34
2022-10-07T11:36:51.050Z,34.95
2022-10-07T11:37:51.018Z,34.36
2022-10-07T11:38:50.967Z,34.46
2022-10-07T11:39:50.936Z,34.75
2022-10-07T11:40:50.902Z,35.05
2022-10-07T11:41:51.052Z,35.14
2022-10-07T11:42:50.850Z,35.05
2022-10-07T11:43:50.817Z,34.93
2022-10-07T11:44:50.787Z,35.62
2022-10-07T11:45:50.758Z,35.72
2022-10-07T11:46:50.767Z,35.91
2022-10-07T11:47:50.721Z,35.82
2022-10-07T11:48:50.675Z,35.72
2022-10-07T11:49:50.641Z,35.91
2022-10-07T11:50:50.610Z,35.70
2022-10-07T11:51:50.582Z,35.68
2022-10-07T11:52:50.786Z,35.78
2022-10-07T11:53:50.539Z,36.84
2022-10-07T11:54:50.498Z,36.84
2022-10-07T11:55:54.396Z,36.94
2022-10-07T11:56:50.444Z,36.66
2022-10-07T11:57:50.404Z,37.15
2022-10-07T11:58:50.399Z,36.47
2022-10-07T11:59:50.347Z,35.80
2022-10-07T12:00:50.343Z,35.68
2022-10-07T12:01:50.305Z,35.57
2022-10-07T12:02:50.738Z,35.97
2022-10-07T12:03:50.228Z,35.68
2022-10-07T12:04:50.225Z,35.70
2022-10-07T12:05:50.168Z,35.82
2022-10-07T12:06:50.138Z,35.50
2022-10-07T12:07:50.114Z,35.60
2022-10-07T12:08:50.108Z,35.88
2022-10-07T12:09:50.073Z,35.97
2022-10-07T12:10:50.047Z,35.68
2022-10-07T12:11:49.995Z,36.27
2022-10-07T12:12:50.140Z,35.88
2022-10-07T12:13:49.930Z,36.18
2022-10-07T12:14:50.095Z,36.37
2022-10-07T12:15:49.867Z,36.47
2022-10-07T12:16:49.845Z,35.88
2022-10-07T12:17:49.813Z,36.18
2022-10-07T12:18:49.787Z,35.70
2022-10-07T12:19:49.751Z,35.80
2022-10-07T12:20:49.737Z,35.80
2022-10-07T12:21:49.698Z,35.70
2022-10-07T12:22:49.677Z,35.49
2022-10-07T12:23:49.636Z,35.70
2022-10-07T12:24:49.629Z,35.27
2022-10-07T12:25:49.574Z,35.68
2022-10-07T12:26:49.553Z,35.66
2022-10-07T12:27:49.545Z,35.86
2022-10-07T12:28:49.484Z,36.16
2022-10-07T12:29:49.458Z,36.06
2022-10-07T12:30:49.426Z,36.25
2022-10-07T12:31:49.465Z,36.14
2022-10-07T12:32:49.563Z,36.92
2022-10-07T12:33:49.371Z,36.49
2022-10-07T12:34:49.305Z,37.16
2022-10-07T12:35:54.035Z,37.93
2022-10-07T12:36:49.244Z,39.00
2022-10-07T12:37:49.209Z,38.90
2022-10-07T12:38:49.183Z,38.24
2022-10-07T12:39:49.174Z,38.82
2022-10-07T12:40:49.120Z,38.73
2022-10-07T12:41:49.084Z,38.94
2022-10-07T12:42:49.054Z,38.76
2022-10-07T12:43:49.026Z,37.81
2022-10-07T12:44:48.993Z,36.96
2022-10-07T12:45:49.048Z,35.99
2022-10-07T12:46:48.949Z,35.14
2022-10-07T12:47:48.932Z,34.58
2022-10-07T12:48:48.871Z,33.51
2022-10-07T12:49:48.863Z,33.53
2022-10-07T12:50:48.809Z,32.93
2022-10-07T12:51:48.783Z,32.74
2022-10-07T12:52:48.861Z,32.24
2022-10-07T12:53:48.890Z,32.84
2022-10-07T12:54:48.696Z,32.82
2022-10-07T12:55:48.658Z,32.92
2022-10-07T12:56:48.627Z,33.31
2022-10-07T12:57:48.596Z,33.51